Time;durP1;ratioP1;P1;durP2;ratioP2;P2;SDS_P1;SDS_P2;PMS_P1;PMS_P2;Temp;Humidity;BMP_temperature;BMP_pressure;BME280_temperature;BME280_humidity;BME280_pressure;Samples;Min_cycle;Max_cycle;Signal;HPM_P1;HPM_P2
2022/02/07 00:02:02;;;;;;;0.70;0.50;;;5.00;99.90;;;;;;5009603;28;20427;-72
2022/02/07 00:04:33;;;;;;;0.70;0.50;;;5.00;99.90;;;;;;5023621;28;20446;-72
2022/02/07 00:06:59;;;;;;;0.70;0.50;;;5.10;99.90;;;;;;5011551;28;20512;-72
2022/02/07 00:09:25;;;;;;;0.70;0.50;;;5.10;99.90;;;;;;5009355;28;20468;-73
2022/02/07 00:11:51;;;;;;;0.70;0.40;;;5.20;99.90;;;;;;5023489;28;20435;-73
2022/02/07 00:14:16;;;;;;;0.70;0.50;;;5.20;99.90;;;;;;5015082;28;20207;-73
2022/02/07 00:16:43;;;;;;;0.70;0.40;;;5.30;99.90;;;;;;5027051;28;20179;-73
2022/02/07 00:19:12;;;;;;;0.70;0.50;;;5.40;99.90;;;;;;5027757;28;20556;-73
2022/02/07 00:21:38;;;;;;;0.70;0.47;;;5.40;99.90;;;;;;5029754;28;20438;-73
2022/02/07 00:24:04;;;;;;;0.70;0.40;;;5.50;99.90;;;;;;5023636;28;20431;-72
2022/02/07 00:26:29;;;;;;;0.70;0.50;;;5.50;99.90;;;;;;5024716;28;20441;-72
2022/02/07 00:28:55;;;;;;;0.70;0.50;;;5.40;99.90;;;;;;5032366;28;20445;-72
2022/02/07 00:31:20;;;;;;;0.70;0.50;;;5.30;99.90;;;;;;5018573;28;20186;-73
2022/02/07 00:33:46;;;;;;;0.70;0.50;;;5.20;99.90;;;;;;5015232;28;20196;-73
2022/02/07 00:36:14;;;;;;;0.70;0.40;;;5.10;99.90;;;;;;5014752;28;20258;-72
2022/02/07 00:38:41;;;;;;;0.70;0.50;;;5.00;99.90;;;;;;4997957;28;20172;-73
2022/02/07 00:41:16;;;;;;;0.70;0.60;;;4.90;99.90;;;;;;5015233;28;20414;-73
2022/02/07 00:43:44;;;;;;;0.70;0.50;;;5.00;99.90;;;;;;5015467;28;20525;-72
2022/02/07 00:46:12;;;;;;;0.70;0.50;;;5.00;99.90;;;;;;4997494;28;20497;-72
2022/02/07 00:48:39;;;;;;;0.70;0.47;;;5.00;99.90;;;;;;5015535;28;20407;-72
2022/02/07 00:51:05;;;;;;;0.70;0.40;;;5.00;99.90;;;;;;5015024;28;20423;-73
2022/02/07 00:53:33;;;;;;;0.70;0.40;;;5.00;99.90;;;;;;5020875;28;20548;-73
2022/02/07 00:55:59;;;;;;;0.70;0.43;;;5.00;99.90;;;;;;5034613;28;20398;-72
2022/02/07 00:58:25;;;;;;;0.70;0.50;;;4.90;99.90;;;;;;5021344;28;20423;-73
2022/02/07 01:00:54;;;;;;;0.70;0.40;;;4.90;99.90;;;;;;5015403;28;20770;-73
2022/02/07 01:03:21;;;;;;;0.70;0.50;;;4.80;99.90;;;;;;4997539;28;20188;-73
2022/02/07 01:05:47;;;;;;;0.70;0.50;;;4.70;99.90;;;;;;4996829;28;20407;-72
2022/02/07 01:08:15;;;;;;;0.70;0.50;;;4.70;99.90;;;;;;5014318;28;20405;-73
2022/02/07 01:10:52;;;;;;;0.70;0.40;;;4.60;99.90;;;;;;5006681;28;20883;-72
2022/02/07 01:16:08;;;;;;;0.70;0.50;;;4.60;99.90;;;;;;5035280;28;20400;-73
2022/02/07 01:19:05;;;;;;;0.70;0.50;;;4.60;99.90;;;;;;5016827;28;20920;-72
2022/02/07 01:48:53;;;;;;;0.70;0.50;;;4.00;99.90;;;;;;5008999;28;20462;-72
2022/02/07 01:53:56;;;;;;;0.70;0.50;;;3.90;99.90;;;;;;4995910;28;20460;-72
2022/02/07 01:56:28;;;;;;;0.70;0.50;;;4.00;99.90;;;;;;5007457;28;20434;-72
2022/02/07 01:58:53;;;;;;;0.70;0.40;;;4.00;99.90;;;;;;4996831;28;20994;-72
2022/02/07 02:01:19;;;;;;;0.70;0.43;;;3.90;99.90;;;;;;5030858;28;20413;-72
2022/02/07 02:03:44;;;;;;;0.70;0.50;;;3.90;99.90;;;;;;5035212;28;20186;-72
2022/02/07 02:06:11;;;;;;;0.70;0.50;;;3.90;99.90;;;;;;5001788;28;20180;-72
2022/02/07 02:08:38;;;;;;;0.70;0.43;;;3.90;99.90;;;;;;4996808;28;20180;-72
2022/02/07 02:11:03;;;;;;;0.70;0.50;;;3.90;99.90;;;;;;4996933;28;20461;-72
2022/02/07 02:13:48;;;;;;;0.70;0.50;;;3.90;99.90;;;;;;5014587;28;20473;-72
2022/02/07 02:46:03;;;;;;;0.70;0.50;;;4.70;99.90;;;;;;5029548;28;20997;-72
2022/02/07 02:48:29;;;;;;;0.70;0.40;;;4.70;99.90;;;;;;5028462;28;20426;-72
2022/02/07 02:50:56;;;;;;;0.70;0.40;;;4.60;99.90;;;;;;5030557;28;20261;-73
2022/02/07 02:53:22;;;;;;;0.70;0.50;;;4.50;99.90;;;;;;5026067;28;20458;-73
2022/02/07 02:55:49;;;;;;;0.70;0.40;;;4.40;99.90;;;;;;5016406;28;20426;-72
2022/02/07 02:58:18;;;;;;;0.70;0.40;;;4.30;99.90;;;;;;5009063;28;20433;-72
2022/02/07 03:00:47;;;;;;;0.70;0.50;;;4.30;99.90;;;;;;5023052;28;20503;-72
2022/02/07 03:03:13;;;;;;;0.70;0.50;;;4.20;99.90;;;;;;5022758;28;20444;-72
2022/02/07 03:05:42;;;;;;;0.70;0.50;;;4.10;99.90;;;;;;5022304;28;20483;-75
2022/02/07 03:08:08;;;;;;;0.70;0.40;;;4.00;99.90;;;;;;5028925;28;20518;-73
2022/02/07 03:13:33;;;;;;;1.00;0.90;;;3.80;99.90;;;;;;5024237;28;20211;-72
2022/02/07 03:18:43;;;;;;;0.70;0.47;;;3.70;99.90;;;;;;5022198;28;20537;-72
2022/02/07 03:21:08;;;;;;;0.70;0.50;;;3.60;99.90;;;;;;4999843;28;20459;-72
2022/02/07 03:23:34;;;;;;;0.70;0.50;;;3.60;99.90;;;;;;4999808;28;20172;-73
2022/02/07 03:26:00;;;;;;;0.70;0.43;;;3.60;99.90;;;;;;5017120;28;20565;-73
2022/02/07 03:28:27;;;;;;;0.70;0.43;;;3.50;99.90;;;;;;5017076;28;20254;-73
2022/02/07 03:30:53;;;;;;;0.70;0.50;;;3.50;99.90;;;;;;4998204;28;20652;-72
2022/02/07 03:33:19;;;;;;;0.70;0.50;;;3.40;99.90;;;;;;5016983;28;20605;-72
2022/02/07 03:35:44;;;;;;;0.70;0.40;;;3.40;99.90;;;;;;4999863;28;20838;-72
2022/02/07 03:38:10;;;;;;;0.70;0.47;;;3.40;99.90;;;;;;5018920;28;20178;-73
2022/02/07 03:40:36;;;;;;;0.70;0.40;;;3.40;99.90;;;;;;5017889;28;20194;-73
2022/02/07 03:43:03;;;;;;;0.70;0.40;;;3.30;99.90;;;;;;5018052;28;20259;-72
2022/02/07 03:45:29;;;;;;;0.70;0.50;;;3.40;99.90;;;;;;5027652;28;20445;-72
2022/02/07 03:47:55;;;;;;;0.70;0.40;;;3.30;99.90;;;;;;5006808;28;20423;-72
2022/02/07 03:50:20;;;;;;;0.70;0.50;;;3.30;99.90;;;;;;5015434;28;20191;-73
2022/02/07 03:52:46;;;;;;;0.70;0.40;;;3.30;99.90;;;;;;5018630;28;20422;-72
2022/02/07 03:55:13;;;;;;;0.70;0.50;;;3.30;99.90;;;;;;5017357;28;20172;-72
2022/02/07 03:57:38;;;;;;;0.70;0.50;;;3.30;99.90;;;;;;5016424;28;20407;-72
2022/02/07 04:00:10;;;;;;;0.70;0.50;;;3.30;99.90;;;;;;5015902;28;20959;-72
2022/02/07 04:02:43;;;;;;;0.70;0.50;;;3.30;99.90;;;;;;5010782;28;20171;-72
2022/02/07 04:08:09;;;;;;;0.70;0.50;;;3.20;99.90;;;;;;4983252;28;20422;-72
2022/02/07 04:10:42;;;;;;;0.70;0.50;;;3.20;99.90;;;;;;5016570;28;20458;-72
2022/02/07 04:13:10;;;;;;;0.70;0.50;;;3.20;99.90;;;;;;4999093;28;20616;-72
2022/02/07 04:15:35;;;;;;;0.70;0.50;;;3.20;99.90;;;;;;5010997;28;20767;-73
2022/02/07 04:18:05;;;;;;;1.10;0.70;;;3.20;99.90;;;;;;5022084;28;20432;-72
2022/02/07 04:20:31;;;;;;;0.70;0.40;;;3.20;99.90;;;;;;5013977;28;20800;-72
2022/02/07 04:22:56;;;;;;;0.70;0.50;;;3.20;99.90;;;;;;5015562;28;20467;-72
2022/02/07 04:25:22;;;;;;;0.70;0.50;;;3.20;99.90;;;;;;5008783;28;20431;-72
2022/02/07 04:27:47;;;;;;;0.70;0.50;;;3.20;99.90;;;;;;5021820;28;20179;-71
2022/02/07 04:30:13;;;;;;;0.70;0.40;;;3.20;99.90;;;;;;5023010;28;20225;-72
2022/02/07 04:32:39;;;;;;;0.70;0.50;;;3.10;99.90;;;;;;5014188;28;20653;-72
2022/02/07 04:35:05;;;;;;;0.70;0.40;;;3.20;99.90;;;;;;5006624;28;20634;-72
2022/02/07 04:37:31;;;;;;;0.70;0.50;;;3.20;99.90;;;;;;5014469;28;20176;-72
2022/02/07 04:39:56;;;;;;;0.70;0.50;;;3.20;99.90;;;;;;5031404;28;20458;-71
2022/02/07 04:42:24;;;;;;;0.70;0.40;;;3.20;99.90;;;;;;5021502;28;20190;-72
2022/02/07 04:53:09;;;;;;;0.70;0.40;;;3.00;99.90;;;;;;5025759;28;20433;-72
2022/02/07 04:55:41;;;;;;;0.70;0.40;;;3.10;99.90;;;;;;5029626;28;20437;-72
2022/02/07 05:00:55;;;;;;;0.70;0.40;;;3.00;99.90;;;;;;5030520;28;20442;-72
2022/02/07 05:03:27;;;;;;;0.70;0.50;;;3.00;99.90;;;;;;5026468;28;20943;-72
2022/02/07 05:13:43;;;;;;;0.70;0.40;;;3.00;99.90;;;;;;5034870;28;20774;-72
2022/02/07 05:14:19;;;;;;;0.70;0.40;;;3.00;99.90;;;;;;5026857;28;21158;-72
2022/02/07 05:16:47;;;;;;;0.70;0.40;;;3.00;99.90;;;;;;5027666;28;20787;-72
2022/02/07 05:19:12;;;;;;;0.70;0.40;;;3.00;99.90;;;;;;5030042;28;20927;-72
2022/02/07 05:21:38;;;;;;;0.70;0.40;;;3.00;99.90;;;;;;5008029;28;20520;-73
2022/02/07 05:24:04;;;;;;;0.70;0.43;;;3.00;99.90;;;;;;5024581;28;20168;-72
2022/02/07 05:26:29;;;;;;;0.70;0.50;;;3.10;99.90;;;;;;5031668;28;20179;-73
2022/02/07 05:28:59;;;;;;;0.70;0.50;;;3.20;99.90;;;;;;5017227;28;20196;-72
2022/02/07 05:31:24;;;;;;;0.70;0.47;;;3.30;99.90;;;;;;5009908;28;20278;-72
2022/02/07 05:33:50;;;;;;;0.70;0.50;;;3.40;99.90;;;;;;5012944;28;20548;-72
2022/02/07 05:36:15;;;;;;;0.70;0.50;;;3.60;99.90;;;;;;5024359;28;20164;-72
2022/02/07 05:38:45;;;;;;;0.70;0.50;;;3.70;99.90;;;;;;5026753;28;20637;-72
2022/02/07 05:41:12;;;;;;;0.70;0.50;;;3.80;99.90;;;;;;5023120;28;20877;-72
2022/02/07 05:43:40;;;;;;;0.70;0.43;;;3.90;99.90;;;;;;5027558;28;20575;-73
2022/02/07 05:46:06;;;;;;;0.70;0.40;;;3.90;99.90;;;;;;5027571;28;20441;-72
2022/02/07 05:48:31;;;;;;;0.70;0.40;;;4.00;99.90;;;;;;5020489;28;20436;-72
2022/02/07 05:50:57;;;;;;;0.70;0.50;;;4.10;99.90;;;;;;5028523;28;20190;-73
2022/02/07 05:53:23;;;;;;;0.70;0.50;;;4.20;99.90;;;;;;5032672;28;20660;-73
2022/02/07 05:55:49;;;;;;;0.70;0.50;;;4.20;99.90;;;;;;5032656;28;20174;-73
2022/02/07 05:58:15;;;;;;;0.70;0.50;;;4.30;99.90;;;;;;5001333;28;20204;-73
2022/02/07 06:00:40;;;;;;;0.70;0.50;;;4.30;99.90;;;;;;4997983;28;20968;-73
2022/02/07 06:03:06;;;;;;;1.73;1.07;;;4.30;99.90;;;;;;5024309;28;20192;-72
2022/02/07 06:05:32;;;;;;;0.70;0.47;;;4.40;99.90;;;;;;5023887;28;20652;-72
2022/02/07 06:07:57;;;;;;;0.70;0.50;;;4.40;99.90;;;;;;5030843;28;20167;-73
2022/02/07 06:10:24;;;;;;;0.70;0.40;;;4.40;99.90;;;;;;5027196;28;20964;-72
2022/02/07 06:12:51;;;;;;;0.70;0.40;;;4.40;99.90;;;;;;5027982;28;20179;-72
2022/02/07 06:15:17;;;;;;;0.70;0.40;;;4.50;99.90;;;;;;5011592;28;20594;-72
2022/02/07 06:17:46;;;;;;;0.70;0.50;;;4.50;99.90;;;;;;5032115;28;20434;-72
2022/02/07 06:20:12;;;;;;;0.70;0.50;;;4.50;99.90;;;;;;5022721;28;20483;-71
2022/02/07 06:22:37;;;;;;;0.70;0.50;;;4.60;99.90;;;;;;5027347;28;20473;-73
2022/02/07 06:25:03;;;;;;;0.70;0.40;;;4.70;99.90;;;;;;5024093;28;21790;-72
2022/02/07 06:27:29;;;;;;;0.70;0.50;;;4.70;99.90;;;;;;5006531;28;20229;-73
2022/02/07 06:29:55;;;;;;;0.70;0.50;;;4.70;99.90;;;;;;5024857;28;20448;-73
2022/02/07 06:32:20;;;;;;;0.70;0.43;;;4.80;99.90;;;;;;5024331;28;20515;-72
2022/02/07 06:34:46;;;;;;;1.00;0.80;;;4.80;99.90;;;;;;5011220;28;20705;-72
2022/02/07 06:37:11;;;;;;;0.70;0.50;;;4.80;99.90;;;;;;5014339;28;20530;-73
2022/02/07 06:39:37;;;;;;;0.70;0.50;;;4.80;99.90;;;;;;5018027;28;20715;-73
2022/02/07 06:42:03;;;;;;;0.70;0.40;;;4.80;99.90;;;;;;5020581;28;20164;-72
2022/02/07 06:44:29;;;;;;;0.70;0.50;;;4.70;99.90;;;;;;5014803;28;20805;-72
2022/02/07 06:46:54;;;;;;;0.70;0.50;;;4.70;99.90;;;;;;5031632;28;20418;-72
2022/02/07 06:49:20;;;;;;;0.70;0.47;;;4.70;99.90;;;;;;5000769;28;20211;-72
2022/02/07 06:51:46;;;;;;;1.73;0.83;;;4.80;99.90;;;;;;5018925;28;20247;-72
2022/02/07 06:54:12;;;;;;;0.70;0.47;;;4.80;99.90;;;;;;5011393;28;20554;-72
2022/02/07 06:56:39;;;;;;;0.70;0.43;;;4.80;99.90;;;;;;5029843;28;20179;-72
2022/02/07 06:59:05;;;;;;;0.70;0.40;;;4.90;99.90;;;;;;5013518;28;20281;-73
2022/02/07 07:01:30;;;;;;;0.70;0.50;;;4.90;99.90;;;;;;5011093;28;20492;-72
2022/02/07 07:03:56;;;;;;;0.70;0.50;;;4.90;99.90;;;;;;5015619;28;20203;-73
2022/02/07 07:06:22;;;;;;;0.70;0.50;;;4.90;99.90;;;;;;5018601;28;20184;-72
2022/02/07 07:08:52;;;;;;;0.70;0.50;;;5.00;99.90;;;;;;5027474;28;20225;-73
2022/02/07 07:11:21;;;;;;;0.70;0.50;;;5.00;99.90;;;;;;5025303;28;20175;-72
2022/02/07 07:13:52;;;;;;;0.70;0.40;;;5.00;99.90;;;;;;5003760;28;20517;-72
2022/02/07 07:18:50;;;;;;;0.70;0.50;;;5.00;99.90;;;;;;5022773;28;20546;-72
2022/02/07 07:21:16;;;;;;;0.70;0.40;;;5.10;99.90;;;;;;5031253;28;20421;-73
2022/02/07 07:23:42;;;;;;;0.70;0.50;;;5.10;99.90;;;;;;5012406;28;20434;-73
2022/02/07 07:26:08;;;;;;;0.70;0.50;;;5.10;99.90;;;;;;5011780;28;20442;-73
2022/02/07 07:28:35;;;;;;;0.70;0.50;;;5.20;99.90;;;;;;5025990;28;20449;-73
2022/02/07 07:31:03;;;;;;;0.70;0.47;;;5.10;99.90;;;;;;5015379;28;20172;-73
2022/02/07 07:33:30;;;;;;;2.30;2.10;;;5.20;99.90;;;;;;5013410;28;20458;-73
2022/02/07 07:35:57;;;;;;;0.70;0.50;;;5.30;99.90;;;;;;5017240;28;20465;-72
2022/02/07 07:38:25;;;;;;;0.70;0.50;;;5.30;99.90;;;;;;5025939;28;20465;-72
2022/02/07 07:40:52;;;;;;;0.70;0.50;;;5.30;99.90;;;;;;5022876;28;21001;-73
2022/02/07 07:43:18;;;;;;;0.70;0.47;;;5.40;99.90;;;;;;5025344;28;20465;-72
2022/02/07 07:45:54;;;;;;;0.70;0.50;;;5.50;99.90;;;;;;5016612;28;20839;-73
2022/02/07 07:48:23;;;;;;;0.70;0.47;;;5.50;99.90;;;;;;5022173;28;20238;-72
2022/02/07 07:51:05;;;;;;;0.70;0.40;;;5.50;99.90;;;;;;5034405;28;20490;-72
2022/02/07 08:01:44;;;;;;;0.70;0.50;;;5.90;99.90;;;;;;5025382;28;20826;-72
2022/02/07 08:04:12;;;;;;;0.70;0.50;;;6.00;99.90;;;;;;5024796;28;20457;-73
2022/02/07 08:06:45;;;;;;;0.70;0.50;;;6.00;99.90;;;;;;5022173;28;20433;-72
2022/02/07 08:11:39;;;;;;;0.70;0.50;;;6.10;99.90;;;;;;5034036;28;20434;-72
2022/02/07 08:14:05;;;;;;;0.70;0.43;;;6.20;99.90;;;;;;5027567;28;20688;-72
2022/02/07 08:16:31;;;;;;;0.70;0.40;;;6.30;99.90;;;;;;5015326;28;21146;-73
2022/02/07 08:19:07;;;;;;;0.70;0.50;;;6.30;99.90;;;;;;5017544;28;20454;-73
2022/02/07 08:21:36;;;;;;;0.70;0.50;;;6.30;99.90;;;;;;5034632;28;20155;-73
2022/02/07 08:24:04;;;;;;;0.70;0.50;;;6.40;99.90;;;;;;5027057;28;20441;-73
2022/02/07 08:26:30;;;;;;;0.80;0.50;;;6.40;99.90;;;;;;5016268;28;20417;-73
2022/02/07 08:28:56;;;;;;;0.70;0.50;;;6.50;99.90;;;;;;5027477;28;20532;-72
2022/02/07 08:31:22;;;;;;;0.70;0.50;;;6.50;99.90;;;;;;5024031;28;20300;-72
2022/02/07 08:33:48;;;;;;;2.80;2.03;;;6.60;99.90;;;;;;5029240;28;20190;-72
2022/02/07 08:36:16;;;;;;;0.70;0.50;;;6.60;99.90;;;;;;5018904;28;20977;-73
2022/02/07 08:38:41;;;;;;;0.70;0.47;;;6.60;99.90;;;;;;4999506;28;20165;-73
2022/02/07 08:41:07;;;;;;;0.70;0.50;;;6.60;99.90;;;;;;5015142;28;20426;-73
2022/02/07 08:43:33;;;;;;;0.70;0.50;;;6.70;99.90;;;;;;5017734;28;20539;-73
2022/02/07 08:45:58;;;;;;;0.70;0.60;;;6.80;99.90;;;;;;5000918;28;20180;-73
2022/02/07 08:48:24;;;;;;;0.70;0.70;;;6.90;99.90;;;;;;5015541;28;20407;-72
2022/02/07 08:50:52;;;;;;;2.20;1.07;;;7.00;99.90;;;;;;5014076;28;20544;-72
2022/02/07 08:53:20;;;;;;;0.70;0.50;;;7.00;99.90;;;;;;5007220;28;20862;-73
2022/02/07 08:55:50;;;;;;;0.70;0.50;;;7.00;99.90;;;;;;5010770;28;20438;-73
2022/02/07 08:58:19;;;;;;;0.70;0.50;;;7.00;99.90;;;;;;5006404;28;20577;-73
2022/02/07 09:01:04;;;;;;;0.70;0.50;;;7.10;99.90;;;;;;5014196;28;20427;-73
2022/02/07 09:09:17;;;;;;;0.70;0.50;;;7.50;99.90;;;;;;4954139;29;20457;-73
2022/02/07 09:11:43;;;;;;;0.70;0.50;;;7.90;99.90;;;;;;4955296;29;20414;-72
2022/02/07 09:14:11;;;;;;;0.70;0.60;;;8.30;99.90;;;;;;4983547;28;20466;-72
2022/02/07 09:16:39;;;;;;;0.70;0.50;;;8.90;99.90;;;;;;5013471;28;20862;-73
2022/02/07 09:19:05;;;;;;;0.70;0.50;;;9.70;99.90;;;;;;5013595;28;20434;-72
2022/02/07 09:21:31;;;;;;;0.70;0.60;;;10.10;99.90;;;;;;5014596;28;20450;-72
2022/02/07 09:23:58;;;;;;;2.20;2.10;;;10.30;99.90;;;;;;4998042;28;20778;-72
2022/02/07 09:26:24;;;;;;;0.70;0.50;;;10.40;99.90;;;;;;5013859;28;20927;-73
2022/02/07 09:28:51;;;;;;;0.80;0.70;;;10.40;99.90;;;;;;5013504;28;20443;-72
2022/02/07 09:31:16;;;;;;;0.70;0.50;;;10.60;99.90;;;;;;5013480;28;20399;-73
2022/02/07 09:33:45;;;;;;;2.17;1.13;;;10.60;99.90;;;;;;5012439;28;20505;-72
2022/02/07 09:36:13;;;;;;;0.70;0.50;;;10.70;99.90;;;;;;5012324;28;20234;-73
2022/02/07 09:38:39;;;;;;;21.43;1.13;;;10.90;99.90;;;;;;5012850;28;20465;-73
2022/02/07 09:41:05;;;;;;;0.77;0.53;;;11.50;99.90;;;;;;5010359;28;20431;-73
2022/02/07 09:43:33;;;;;;;0.90;0.60;;;12.20;99.90;;;;;;5016320;28;20176;-73
2022/02/07 09:46:10;;;;;;;1.97;1.87;;;12.80;99.90;;;;;;5002027;28;20465;-73
2022/02/07 09:48:39;;;;;;;0.70;0.50;;;13.60;99.90;;;;;;4993461;28;20415;-73
2022/02/07 09:51:06;;;;;;;0.70;0.50;;;14.40;99.90;;;;;;5004953;28;20420;-74
2022/02/07 09:53:32;;;;;;;0.80;0.60;;;15.00;99.90;;;;;;4994180;28;20455;-73
2022/02/07 09:56:01;;;;;;;1.37;1.27;;;15.40;99.90;;;;;;5012472;28;20427;-73
2022/02/07 09:58:27;;;;;;;0.80;0.60;;;15.90;98.70;;;;;;5013242;28;20408;-73
2022/02/07 10:00:58;;;;;;;0.70;0.60;;;16.00;94.60;;;;;;5010833;28;20959;-73
2022/02/07 10:03:33;;;;;;;1.00;1.00;;;15.90;93.60;;;;;;5022777;28;20188;-74
2022/02/07 10:06:11;;;;;;;0.70;0.50;;;16.00;93.50;;;;;;5004765;28;20430;-73
2022/02/07 10:14:14;;;;;;;1.33;0.70;;;17.50;89.40;;;;;;5013490;28;20545;-74
2022/02/07 10:16:49;;;;;;;0.70;0.50;;;18.00;83.10;;;;;;4996920;28;20415;-74
2022/02/07 10:22:39;;;;;;;4.83;0.70;;;18.90;76.70;;;;;;5012468;28;20433;-74
2022/02/07 10:36:29;;;;;;;1.73;1.63;;;19.70;65.50;;;;;;5014269;28;20410;-75
2022/02/07 10:44:36;;;;;;;0.80;0.60;;;21.00;62.80;;;;;;5012217;28;20423;-74
2022/02/07 10:47:09;;;;;;;1.03;0.93;;;20.90;60.20;;;;;;4995018;28;20496;-74
2022/02/07 10:49:35;;;;;;;1.90;1.57;;;20.50;59.40;;;;;;5012301;28;20443;-73
2022/02/07 10:52:01;;;;;;;0.70;0.60;;;19.90;59.10;;;;;;4995031;28;20759;-74
2022/02/07 10:54:27;;;;;;;0.80;0.60;;;19.20;60.40;;;;;;5013382;28;20657;-74
2022/02/07 10:56:54;;;;;;;0.70;0.50;;;18.50;60.80;;;;;;5012902;28;20419;-74
2022/02/07 10:59:21;;;;;;;1.10;1.00;;;17.70;62.80;;;;;;5012306;28;20481;-74
2022/02/07 11:04:18;;;;;;;2.77;1.00;;;16.20;67.10;;;;;;5011562;28;20747;-74
2022/02/07 11:06:47;;;;;;;0.80;0.60;;;15.60;70.00;;;;;;5011883;28;20403;-73
2022/02/07 11:09:37;;;;;;;0.77;0.60;;;15.00;73.70;;;;;;5011843;28;20419;-73
2022/02/07 11:18:16;;;;;;;0.77;0.60;;;13.60;92.30;;;;;;4996133;28;20450;-74
2022/02/07 11:21:01;;;;;;;0.70;0.60;;;13.20;96.20;;;;;;5012261;28;20454;-73
2022/02/07 11:23:44;;;;;;;1.40;1.27;;;13.00;99.90;;;;;;5013919;28;20419;-73
2022/02/07 11:26:28;;;;;;;0.70;0.50;;;13.30;99.90;;;;;;4997443;28;20452;-74
2022/02/07 11:28:54;;;;;;;0.70;0.60;;;13.50;99.90;;;;;;5015666;28;20447;-73
2022/02/07 11:31:29;;;;;;;0.70;0.60;;;13.70;99.90;;;;;;5014289;28;20419;-73
2022/02/07 11:34:01;;;;;;;3.13;1.13;;;13.70;99.90;;;;;;5015011;28;20196;-74
2022/02/07 11:36:36;;;;;;;1.27;0.90;;;13.80;99.90;;;;;;4997783;28;20419;-74
2022/02/07 11:39:10;;;;;;;0.80;0.60;;;14.50;99.90;;;;;;5015979;28;20449;-74
2022/02/07 11:42:08;;;;;;;1.07;0.97;;;15.60;99.90;;;;;;5014878;28;20422;-74
2022/02/07 11:44:43;;;;;;;2.50;1.07;;;16.80;93.00;;;;;;4997457;28;20419;-74
2022/02/07 11:47:14;;;;;;;1.10;1.03;;;18.00;84.30;;;;;;5015291;28;20398;-74
2022/02/07 11:49:41;;;;;;;0.80;0.67;;;18.10;76.30;;;;;;5014703;28;20562;-74
2022/02/07 11:52:36;;;;;;;0.70;0.60;;;17.90;72.90;;;;;;4997207;28;20457;-74
2022/02/07 11:55:13;;;;;;;1.17;0.80;;;17.50;72.00;;;;;;5015196;28;20460;-73
2022/02/07 11:57:44;;;;;;;0.70;0.50;;;17.00;72.70;;;;;;5017374;28;20437;-74
2022/02/07 12:00:12;;;;;;;0.70;0.50;;;16.60;74.60;;;;;;5014847;28;20794;-73
2022/02/07 12:02:40;;;;;;;2.03;1.93;;;16.10;76.50;;;;;;5014890;28;20412;-74
2022/02/07 12:05:10;;;;;;;0.70;0.50;;;15.70;79.30;;;;;;4996895;28;20439;-73
2022/02/07 12:07:38;;;;;;;1.33;1.20;;;15.30;82.50;;;;;;5015319;28;20502;-73
2022/02/07 12:10:35;;;;;;;0.73;0.57;;;14.80;85.00;;;;;;5014606;28;20987;-73
2022/02/07 12:13:04;;;;;;;0.70;0.60;;;14.40;90.10;;;;;;5015019;28;20457;-73
2022/02/07 12:15:35;;;;;;;0.70;0.60;;;14.00;94.20;;;;;;5014683;28;20427;-73
2022/02/07 12:18:20;;;;;;;0.70;0.50;;;13.80;99.00;;;;;;5015669;28;20939;-72
2022/02/07 12:20:51;;;;;;;1.37;0.90;;;13.50;99.60;;;;;;5014535;28;20439;-73
2022/02/07 12:23:28;;;;;;;1.07;0.97;;;13.30;99.90;;;;;;5014583;28;20444;-73
2022/02/07 12:26:04;;;;;;;0.70;0.50;;;13.30;99.90;;;;;;5013982;28;20423;-73
2022/02/07 12:31:23;;;;;;;2.10;1.73;;;13.60;99.90;;;;;;5016209;28;20528;-73
2022/02/07 12:34:03;;;;;;;0.80;0.80;;;14.00;99.90;;;;;;5016194;28;20874;-73
2022/02/07 12:36:34;;;;;;;0.90;0.73;;;15.50;97.20;;;;;;5015316;28;21153;-73
2022/02/07 12:39:03;;;;;;;0.87;0.57;;;15.90;90.50;;;;;;5013752;28;20951;-73
2022/02/07 12:41:30;;;;;;;0.70;0.60;;;15.80;85.80;;;;;;5013576;28;20419;-73
2022/02/07 12:43:57;;;;;;;1.00;0.90;;;15.50;87.30;;;;;;5013806;28;20518;-73
2022/02/07 12:46:26;;;;;;;0.80;0.60;;;15.50;88.10;;;;;;5013706;28;20558;-73
2022/02/07 12:48:58;;;;;;;0.80;0.60;;;15.30;85.30;;;;;;5014469;28;20442;-73
2022/02/07 12:51:30;;;;;;;1.07;0.97;;;14.90;86.30;;;;;;5014041;28;20424;-73
2022/02/07 12:53:56;;;;;;;0.80;0.60;;;14.40;90.10;;;;;;5009426;28;20447;-73
2022/02/07 12:56:23;;;;;;;1.07;0.83;;;13.90;91.20;;;;;;5012125;28;20932;-73
2022/02/07 12:58:51;;;;;;;1.33;1.23;;;13.50;92.80;;;;;;5013763;28;20784;-73
2022/02/07 13:01:17;;;;;;;0.77;0.63;;;13.00;95.60;;;;;;5013797;28;20423;-73
2022/02/07 13:04:05;;;;;;;0.70;0.50;;;12.50;99.90;;;;;;5013175;28;20419;-73
2022/02/07 13:06:35;;;;;;;0.73;0.53;;;12.20;99.90;;;;;;5013676;28;20482;-73
2022/02/07 13:09:10;;;;;;;0.80;0.60;;;12.00;99.90;;;;;;5013382;28;20450;-73
2022/02/07 13:11:44;;;;;;;0.70;0.50;;;13.10;99.90;;;;;;5013535;28;20425;-73
2022/02/07 13:14:10;;;;;;;0.70;0.60;;;14.80;99.90;;;;;;5013684;28;20549;-74
2022/02/07 13:16:35;;;;;;;0.83;0.80;;;16.20;95.20;;;;;;5013377;28;20959;-73
2022/02/07 13:19:15;;;;;;;0.70;0.60;;;17.70;77.70;;;;;;5013294;28;20493;-73
2022/02/07 13:21:47;;;;;;;0.80;0.60;;;19.10;71.30;;;;;;5013608;28;20298;-73
2022/02/07 13:24:16;;;;;;;0.80;0.67;;;20.30;61.90;;;;;;5013626;28;20422;-73
2022/02/07 13:26:47;;;;;;;1.93;1.00;;;20.30;57.00;;;;;;5013302;28;20407;-73
2022/02/07 13:29:34;;;;;;;0.80;0.60;;;20.00;55.70;;;;;;4995664;28;20471;-73
2022/02/07 13:32:06;;;;;;;1.17;0.90;;;19.40;55.40;;;;;;5015019;28;20427;-74
2022/02/07 13:34:35;;;;;;;0.90;0.70;;;18.60;56.30;;;;;;4997566;28;20801;-73
2022/02/07 13:37:19;;;;;;;0.70;0.50;;;17.80;56.40;;;;;;5014855;28;20403;-73
2022/02/07 13:39:51;;;;;;;0.73;0.60;;;17.10;57.70;;;;;;4997523;28;20953;-73
2022/02/07 13:42:16;;;;;;;5.27;0.90;;;16.80;60.00;;;;;;4996528;28;20431;-73
2022/02/07 13:44:43;;;;;;;0.70;0.50;;;16.60;60.70;;;;;;5012872;28;20781;-70
2022/02/07 13:47:10;;;;;;;1.10;0.80;;;17.00;62.20;;;;;;5012389;28;20168;-74
2022/02/07 13:49:56;;;;;;;1.13;1.03;;;17.50;60.20;;;;;;5013205;28;20433;-74
2022/02/07 13:52:22;;;;;;;0.70;0.57;;;17.30;59.60;;;;;;5012955;28;20475;-73
2022/02/07 13:54:47;;;;;;;0.70;0.60;;;16.80;59.70;;;;;;5013086;28;20541;-74
2022/02/07 13:57:13;;;;;;;1.90;1.80;;;16.30;60.70;;;;;;5012928;28;20403;-74
2022/02/07 13:59:39;;;;;;;0.80;0.60;;;15.90;62.00;;;;;;4995458;28;20285;-74
2022/02/07 14:02:29;;;;;;;0.70;0.50;;;15.50;64.00;;;;;;5012498;28;20162;-73
2022/02/07 14:04:55;;;;;;;0.73;0.63;;;15.40;65.80;;;;;;5000644;28;20187;-73
2022/02/07 14:07:21;;;;;;;1.33;1.00;;;15.20;67.10;;;;;;5012223;28;20419;-73
2022/02/07 14:09:47;;;;;;;0.70;0.50;;;15.00;68.40;;;;;;5017776;28;20488;-73
2022/02/07 14:12:13;;;;;;;0.70;0.50;;;14.80;69.70;;;;;;5009443;28;20429;-73
2022/02/07 14:14:40;;;;;;;15.97;1.33;;;14.60;70.80;;;;;;5012614;28;20188;-73
2022/02/07 14:17:06;;;;;;;1.00;0.60;;;15.10;76.30;;;;;;5012145;28;20438;-73
2022/02/07 14:19:39;;;;;;;0.70;0.50;;;15.20;73.10;;;;;;5012143;28;20443;-73
2022/02/07 14:22:06;;;;;;;0.80;0.60;;;15.10;71.30;;;;;;5014396;28;20427;-74
2022/02/07 14:24:32;;;;;;;0.80;0.50;;;15.00;70.30;;;;;;5015809;28;20417;-73
2022/02/07 14:26:57;;;;;;;3.23;0.70;;;15.00;70.60;;;;;;5013159;28;20522;-73
2022/02/07 14:29:23;;;;;;;0.70;0.50;;;14.90;69.20;;;;;;5012584;28;20280;-73
2022/02/07 14:31:48;;;;;;;0.70;0.50;;;15.00;70.20;;;;;;5012479;28;20219;-74
2022/02/07 14:34:14;;;;;;;1.20;1.03;;;15.60;69.80;;;;;;5011680;28;20211;-74
2022/02/07 14:36:39;;;;;;;0.70;0.50;;;16.50;68.40;;;;;;5012077;28;20263;-74
2022/02/07 14:39:08;;;;;;;0.70;0.50;;;17.20;64.90;;;;;;5012297;28;20196;-74
2022/02/07 14:41:35;;;;;;;0.70;0.50;;;17.20;63.00;;;;;;5012680;28;20166;-74
2022/02/07 14:44:04;;;;;;;0.80;0.60;;;16.80;60.40;;;;;;5012257;28;20840;-74
2022/02/07 14:46:36;;;;;;;0.80;0.60;;;16.20;60.40;;;;;;5011886;28;20434;-74
2022/02/07 14:49:02;;;;;;;1.67;0.87;;;15.50;61.20;;;;;;5012453;28;20759;-74
2022/02/07 14:51:28;;;;;;;2.07;1.97;;;14.80;63.30;;;;;;5012306;28;20878;-74
2022/02/07 14:53:54;;;;;;;0.70;0.50;;;14.30;65.80;;;;;;4993979;28;20578;-74
2022/02/07 14:56:19;;;;;;;0.80;0.60;;;13.80;66.60;;;;;;5012280;28;20529;-74
2022/02/07 14:58:45;;;;;;;1.10;1.00;;;13.40;68.40;;;;;;5012149;28;20168;-74
2022/02/07 15:01:12;;;;;;;0.80;0.60;;;13.10;70.40;;;;;;5016282;28;20179;-74
2022/02/07 15:03:37;;;;;;;0.70;0.50;;;12.90;73.70;;;;;;5016539;28;20215;-74
2022/02/07 15:06:04;;;;;;;1.00;0.90;;;12.70;76.60;;;;;;5017012;28;20434;-74
2022/02/07 15:08:30;;;;;;;1.87;1.30;;;12.50;78.30;;;;;;5019141;28;20595;-73
2022/02/07 15:10:57;;;;;;;1.00;0.90;;;12.50;82.00;;;;;;5015757;28;20423;-74
2022/02/07 15:13:24;;;;;;;8.70;1.00;;;12.60;83.20;;;;;;5016841;28;20253;-73
2022/02/07 15:15:50;;;;;;;0.70;0.60;;;12.80;81.10;;;;;;5020713;28;20472;-73
2022/02/07 15:18:17;;;;;;;0.70;0.63;;;12.70;79.70;;;;;;5016433;28;20502;-74
2022/02/07 15:20:43;;;;;;;0.70;0.60;;;12.80;80.30;;;;;;5015299;28;20180;-73
2022/02/07 15:23:10;;;;;;;0.70;0.50;;;13.10;79.90;;;;;;4998233;28;20433;-74
2022/02/07 15:25:38;;;;;;;0.70;0.50;;;13.20;77.50;;;;;;5015472;28;20588;-74